AirNav   Everest Fuels
 
 486 users online  

II32 Raceway Airport
Chandler, Indiana, USA

GOING TO CHANDLER?


FAA INFORMATION EFFECTIVE 18 JUNE 2020

Location

FAA Identifier: II32
Lat/Long: 38-02-57.1600N 087-22-53.0350W
38-02.952667N 087-22.883917W
38.0492111,-87.3813986
(estimated)
Elevation: 400 ft. / 122 m (estimated)
Variation: 00W (1985)
From city: 1 mile W of CHANDLER, IN
Time zone: UTC -5 (UTC -6 during Standard Time)
Zip code: 47610

Airport Operations

Airport use: Private use. Permission required prior to landing
Activation date: 05/1982
Control tower: no
ARTCC: INDIANAPOLIS CENTER
FSS: TERRE HAUTE FLIGHT SERVICE STATION
Attendance: UNATNDD
Segmented circle: no

Airport Communications

WX ASOS at EVV (7 nm W): 120.2 (812-436-4681)

Nearby radio navigation aids

VOR radial/distance  VOR name  Freq  Var
PXVr065/19.4POCKET CITY VORTAC113.3003E
OWBr335/21.0OWENSBORO VOR/DME108.6004W

Airport Services

Runway Information

Runway 4/22

Dimensions: 3600 x 60 ft. / 1097 x 18 m
Surface: asphalt
RUNWAY 4  RUNWAY 22
Traffic pattern: leftleft

Airport Ownership and Management from official FAA records

Ownership: Privately-owned
Owner: PRESLEYLAND SPEEDPARK, LLC
P O BOX 1075
NEWBURG, IN 47629
Phone (310) 819-0978
Manager: RENO FONTANA
P O BOX 1075
NEWBURG, IN 47629
Phone (310) 819-0978

Airport Operational Statistics

Aircraft based on the field: 10
Multi engine airplanes: 10
    

Additional Remarks

A52 35' PLINE CROSSES CENTER OF RWY.
OWNER DESIRES ARPT NOT TO BE CHARTED.
FOR CD CTC EVANSVILLE APCH AT 812-436-4690, WHEN APCH CLSD CTC INDIANAPOLIS ARTCC AT 317-247-2411.

Instrument Procedures

There are no published instrument procedures at II32.

Some nearby airports with instrument procedures:

KEVV - Evansville Regional Airport (7 nm W)
KEHR - Henderson City-County Airport (20 nm SW)
KOWB - Owensboro-Daviess County Regional Airport (21 nm SE)
KHNB - Huntingburg Airport (23 nm NE)
KY8 - Hancock County Airport-Ron Lewis Field (25 nm E)
 
Loc | Ops | Rwys | IFR | FBO | Links
Com | Nav | Svcs | Stats | Notes
Area around II32 (Raceway Airport)
 
Road maps at: MapQuest Bing Google
 
Aerial photo
No photo
 
Sectional chart

 
Airport distance calculator
Flying to Raceway Airport? Find the distance to fly.

From to II32

Sunrise and sunset
Times for 13-Jul-2020
 Local
(UTC-5)
 Zulu
(UTC)
Morning civil twilight05:0810:08
Sunrise05:3910:39
Sunset20:1201:12
Evening civil twilight20:4201:42

Current date and time
Zulu (UTC)  13-Jul-2020 05:26:21
Local (UTC-5)  13-Jul-2020 00:26:21
 
METAR
KI19 
3nm E 
130515Z AUTO 00000KT 5SM BR CLR 17/17 A2992 RMK AO2 T01720166
KEVV 
6nm W 
130454Z AUTO 36003KT 10SM CLR 22/19 A2990 RMK AO2 SLP122 T02220194
KEHR 
19nm SW 
130456Z AUTO 00000KT 3SM BR CLR 20/19 A2990 RMK AO2 SLP124 T02000194
TAF
KEVV 
6nm W 
122204Z 1222/1318 01010G18KT P6SM SCT025 BKN035 TEMPO 1222/1224 BKN025 FM130000 02007KT P6SM SCT050 FM130300 35004KT P6SM SCT250
NOTAMs
Click for the latest NOTAMs
NOTAMs are issued by the DoD/FAA and will open in a separate window not controlled by AirNav.

 

 
 

Would you like to see your business listed on this page?

 If your business provides an interesting product or service to pilots, flight crews, aircraft, or users of the Raceway Airport, you should consider listing it here.  To start the listing process, click on the button below
 
Add a business
 

Other Pages about Raceway Airport

Update a link
 
Copyright © AirNav, LLC. All rights reserved. Privacy Policy  Contact